Hlavní strana
METAR-TAF:

METAR-TAF

Letiště :

Cut Bank, Montana, Spojené státy americké

zeměpisná šířka: 48-36-30N, zeměpisná délka: 112-22-34W, výška: 1175 m

Aktuální stav počasí

Zpráva byla vytvořena před 35 minutami, v 22:56 UTC
Jižní vítr 4 kt
Teplota 22°C
Vlhkost vzduchu 15%
Tlak 1021 hPa
Viditelnost: 16.1 km
Jasno

METAR: KCTB 172256Z AUTO 18004KT 10SM CLR 22/M06 A3014 RMK AO2 SLP204 T02221061

Čas: 17:31 (23:31 UTC)

Předpověď počasí

Zpráva byla vytvořena před 11 minutami, v 23:20 UTC
Předpověď platná od 18 v 00 UTC do 18 v 24 UTC
Západní vítr 11 kt
Viditelnost: 10 km
Jasno

TAF: KCTB 172320Z 1800/1824 26011KT P6SM SKC

Stav a předpovědi počasí z více než 4 000 letišť (zprávy METAR a TAF).

Červené a žluté tečky na mapě představují dostupné meteorologické stanice.

Když kurzor umístíte na tečku, zobrazí se název stanice.

Pak kliknutím zobrazíte stav a předpověď počasí.

Chcete-li změnit mapu, kliknutím na zelené tlačítko se znaménkem +mapu přiblížíte, kliknutím na zelené tlačítko se znaménkem – mapu oddálíte a kliknutím na zelené šipky přejdete na sousední mapy.


METAR-TAF: